Time;durP1;ratioP1;P1;durP2;ratioP2;P2;SDS_P1;SDS_P2;PMS_P1;PMS_P2;Temp;Humidity;BMP_temperature;BMP_pressure;BME280_temperature;BME280_humidity;BME280_pressure;Samples;Min_cycle;Max_cycle;Signal;HPM_P1;HPM_P2
2023/02/13 00:00:16;;;;;;;18.77;10.20;;;10.00;99.90;;;;;;5018403;28;20034;-62
2023/02/13 00:02:42;;;;;;;21.58;9.93;;;10.00;99.90;;;;;;5012372;28;20038;-62
2023/02/13 00:05:07;;;;;;;17.88;8.60;;;9.90;99.90;;;;;;5010976;28;20103;-62
2023/02/13 00:07:33;;;;;;;18.63;10.23;;;9.90;99.90;;;;;;5011592;28;20028;-63
2023/02/13 00:09:59;;;;;;;17.50;9.90;;;9.90;99.90;;;;;;5007442;28;20130;-62
2023/02/13 00:12:24;;;;;;;19.23;8.50;;;9.90;99.90;;;;;;5007589;28;20052;-62
2023/02/13 00:14:50;;;;;;;18.38;8.63;;;9.90;99.90;;;;;;5012414;28;20136;-62
2023/02/13 00:17:16;;;;;;;15.75;8.25;;;9.90;99.90;;;;;;5011803;28;20615;-62
2023/02/13 00:19:42;;;;;;;18.25;8.63;;;9.90;99.90;;;;;;5012631;28;20035;-62
2023/02/13 00:22:08;;;;;;;16.88;8.13;;;9.90;99.90;;;;;;5006895;28;20141;-62
2023/02/13 00:24:34;;;;;;;16.38;7.63;;;9.90;99.90;;;;;;5004963;28;20399;-62
2023/02/13 00:27:00;;;;;;;14.60;6.03;;;9.90;99.90;;;;;;5012306;28;20026;-61
2023/02/13 00:29:26;;;;;;;14.18;6.72;;;9.90;99.90;;;;;;4994115;28;20034;-62
2023/02/13 00:31:52;;;;;;;12.02;6.30;;;9.90;99.90;;;;;;5008487;28;20022;-63
2023/02/13 00:34:17;;;;;;;10.95;6.38;;;9.90;99.90;;;;;;4994818;28;20037;-62
2023/02/13 00:36:43;;;;;;;11.77;6.65;;;9.90;99.90;;;;;;4991128;28;20030;-61
2023/02/13 00:39:12;;;;;;;11.95;6.20;;;9.90;99.90;;;;;;5013813;28;20037;-62
2023/02/13 00:41:38;;;;;;;12.52;6.40;;;9.80;99.90;;;;;;4993777;28;20036;-62
2023/02/13 00:44:04;;;;;;;9.90;5.28;;;9.80;99.90;;;;;;5000941;28;20588;-63
2023/02/13 00:46:30;;;;;;;9.40;5.35;;;9.80;99.90;;;;;;5005379;28;20149;-62
2023/02/13 00:48:55;;;;;;;8.40;5.60;;;9.80;99.90;;;;;;5004329;28;20061;-62
2023/02/13 00:51:21;;;;;;;9.13;5.00;;;9.80;99.90;;;;;;4995047;28;20494;-62
2023/02/13 00:53:47;;;;;;;9.98;5.20;;;9.80;99.90;;;;;;4995102;28;20132;-62
2023/02/13 00:56:14;;;;;;;8.52;5.05;;;9.80;99.90;;;;;;5015121;28;20029;-62
2023/02/13 00:58:43;;;;;;;8.70;4.60;;;9.70;99.90;;;;;;5013503;28;20049;-61
2023/02/13 01:01:09;;;;;;;9.38;5.18;;;9.80;99.90;;;;;;5007655;28;20033;-62
2023/02/13 01:03:35;;;;;;;9.20;5.45;;;9.70;99.90;;;;;;4989137;28;20033;-62
2023/02/13 01:06:01;;;;;;;7.65;4.50;;;9.70;99.90;;;;;;5001571;28;20047;-62
2023/02/13 01:08:27;;;;;;;9.38;4.32;;;9.70;99.90;;;;;;5011393;28;20056;-62
2023/02/13 01:10:53;;;;;;;9.10;4.60;;;9.60;99.90;;;;;;4988568;28;20040;-62
2023/02/13 01:13:19;;;;;;;6.47;3.53;;;9.70;99.90;;;;;;5001491;28;20053;-62
2023/02/13 01:15:47;;;;;;;7.20;4.05;;;9.60;99.90;;;;;;5013734;28;20037;-62
2023/02/13 01:18:18;;;;;;;11.63;4.82;;;9.60;99.90;;;;;;5011969;28;20037;-62
2023/02/13 01:20:44;;;;;;;6.57;4.03;;;9.60;99.90;;;;;;5012682;28;20033;-62
2023/02/13 01:23:11;;;;;;;8.95;4.15;;;9.60;99.90;;;;;;4993604;28;20033;-62
2023/02/13 01:25:41;;;;;;;7.90;4.07;;;9.60;99.90;;;;;;5005446;28;20046;-63
2023/02/13 01:28:07;;;;;;;7.15;4.03;;;9.50;99.90;;;;;;4998778;28;20056;-62
2023/02/13 01:30:33;;;;;;;6.30;3.40;;;9.50;99.90;;;;;;5008794;28;20037;-62
2023/02/13 01:32:59;;;;;;;5.38;3.50;;;9.50;99.90;;;;;;5009095;28;20036;-63
2023/02/13 01:35:24;;;;;;;5.82;3.45;;;9.50;99.90;;;;;;4986461;28;20073;-62
2023/02/13 01:37:50;;;;;;;6.00;3.22;;;9.50;99.90;;;;;;4994495;28;20033;-63
2023/02/13 01:40:16;;;;;;;5.90;3.35;;;9.40;99.90;;;;;;5008046;28;20037;-62
2023/02/13 01:42:43;;;;;;;5.93;3.25;;;9.40;99.90;;;;;;5010539;28;20036;-62
2023/02/13 01:45:23;;;;;;;5.72;3.28;;;9.40;99.90;;;;;;5011020;28;20021;-62
2023/02/13 01:47:54;;;;;;;4.72;3.25;;;9.40;99.90;;;;;;5012843;28;20478;-64
2023/02/13 01:50:56;;;;;;;4.97;3.05;;;9.40;99.90;;;;;;5007170;28;20200;-63
2023/02/13 01:53:28;;;;;;;9.07;4.47;;;9.40;99.90;;;;;;5009094;28;20038;-63
2023/02/13 01:56:00;;;;;;;6.32;3.50;;;9.40;99.90;;;;;;5014591;28;20034;-63
2023/02/13 01:58:31;;;;;;;6.13;3.95;;;9.40;99.90;;;;;;4997109;28;20074;-63
2023/02/13 02:00:59;;;;;;;6.80;3.83;;;9.40;99.90;;;;;;4998918;28;20025;-69
2023/02/13 02:03:32;;;;;;;6.93;4.10;;;9.40;99.90;;;;;;4998847;28;20033;-63
2023/02/13 02:06:08;;;;;;;8.80;5.22;;;9.40;99.90;;;;;;4991106;28;20029;-63
2023/02/13 02:08:35;;;;;;;9.02;5.22;;;9.40;99.90;;;;;;5011896;28;20033;-63
2023/02/13 02:11:10;;;;;;;11.10;5.47;;;9.30;99.90;;;;;;4997462;28;20033;-63
2023/02/13 02:13:36;;;;;;;10.77;5.03;;;9.30;99.90;;;;;;5008770;28;20034;-63
2023/02/13 02:16:07;;;;;;;9.18;4.97;;;9.30;99.90;;;;;;5001957;28;20026;-63
2023/02/13 02:18:32;;;;;;;9.82;5.53;;;9.30;99.90;;;;;;5016828;28;20041;-63
2023/02/13 02:21:08;;;;;;;11.27;5.38;;;9.30;99.90;;;;;;5011499;28;20039;-63
2023/02/13 02:23:48;;;;;;;11.27;6.17;;;9.30;99.90;;;;;;5010757;28;20734;-63
2023/02/13 02:26:24;;;;;;;10.00;5.60;;;9.30;99.90;;;;;;5002469;28;20276;-63
2023/02/13 02:29:16;;;;;;;9.45;5.45;;;9.30;99.90;;;;;;5008015;28;20030;-64
2023/02/13 02:32:03;;;;;;;11.15;5.45;;;9.30;99.90;;;;;;5011427;28;20030;-65
2023/02/13 02:34:40;;;;;;;10.27;5.88;;;9.30;99.90;;;;;;4996583;28;20120;-65
2023/02/13 02:37:34;;;;;;;10.18;5.85;;;9.30;99.90;;;;;;4999813;28;20070;-64
2023/02/13 02:40:16;;;;;;;10.88;5.78;;;9.30;99.90;;;;;;5005349;28;20837;-65
2023/02/13 02:42:57;;;;;;;9.40;5.13;;;9.30;99.90;;;;;;5021509;28;20108;-65
2023/02/13 02:45:41;;;;;;;9.00;4.85;;;9.30;99.90;;;;;;5004839;28;20038;-65
2023/02/13 02:51:31;;;;;;;11.50;6.47;;;9.20;99.90;;;;;;5013866;28;20034;-65
2023/02/13 03:06:09;;;;;;;11.45;6.35;;;9.20;99.90;;;;;;5001175;28;20049;-65
2023/02/13 03:14:05;;;;;;;10.63;5.55;;;9.20;99.90;;;;;;5012243;28;20501;-62
2023/02/13 03:22:23;;;;;;;10.18;5.13;;;9.20;99.90;;;;;;5012757;28;20052;-64
2023/02/13 03:24:57;;;;;;;11.45;6.88;;;9.20;99.90;;;;;;5015532;28;20033;-64
2023/02/13 03:30:21;;;;;;;10.52;5.38;;;9.10;99.90;;;;;;5009439;28;20049;-64
2023/02/13 03:33:09;;;;;;;12.57;6.28;;;9.10;99.90;;;;;;5009073;28;20144;-64
2023/02/13 03:38:45;;;;;;;10.68;5.47;;;9.10;99.90;;;;;;5010861;28;20679;-64
2023/02/13 03:41:27;;;;;;;9.75;5.20;;;9.10;99.90;;;;;;5009189;28;20037;-64
2023/02/13 03:44:08;;;;;;;8.75;5.05;;;9.10;99.90;;;;;;5005311;28;20072;-64
2023/02/13 03:46:40;;;;;;;9.30;5.38;;;9.10;99.90;;;;;;5012902;28;20543;-64
2023/02/13 03:52:01;;;;;;;11.32;5.53;;;9.10;99.90;;;;;;5013785;28;21031;-64
2023/02/13 04:00:40;;;;;;;11.23;5.80;;;9.10;99.90;;;;;;5014748;28;20402;-64
2023/02/13 04:03:25;;;;;;;9.02;4.40;;;9.10;99.90;;;;;;5011586;28;20146;-64
2023/02/13 04:06:08;;;;;;;7.93;4.72;;;9.00;99.90;;;;;;5011199;28;20046;-63
2023/02/13 04:08:34;;;;;;;7.90;5.07;;;9.00;99.90;;;;;;5010969;28;20042;-64
2023/02/13 04:11:26;;;;;;;9.35;4.90;;;9.00;99.90;;;;;;5013673;28;20025;-64
2023/02/13 04:13:58;;;;;;;9.70;5.72;;;9.00;99.90;;;;;;5015020;28;20040;-65
2023/02/13 04:16:28;;;;;;;11.70;5.72;;;9.00;99.90;;;;;;5015739;28;20037;-63
2023/02/13 04:18:56;;;;;;;9.52;4.53;;;9.00;99.90;;;;;;5010921;28;20049;-64
2023/02/13 04:21:23;;;;;;;10.38;5.40;;;8.90;99.90;;;;;;5007315;28;20078;-64
2023/02/13 04:23:49;;;;;;;8.90;4.90;;;9.00;99.90;;;;;;5010378;28;20061;-62
2023/02/13 04:26:22;;;;;;;8.10;4.57;;;9.00;99.90;;;;;;5012832;28;20149;-62
2023/02/13 04:28:47;;;;;;;7.15;3.90;;;9.00;99.90;;;;;;5012028;28;20458;-64
2023/02/13 04:31:13;;;;;;;10.43;5.40;;;9.00;99.90;;;;;;5015867;28;20072;-64
2023/02/13 04:33:39;;;;;;;11.00;5.32;;;8.90;99.90;;;;;;5008140;28;20885;-64
2023/02/13 04:36:05;;;;;;;10.82;5.53;;;9.00;99.90;;;;;;5007578;28;20640;-64
2023/02/13 04:38:31;;;;;;;11.07;5.90;;;9.00;99.90;;;;;;5004304;28;20026;-64
2023/02/13 04:40:57;;;;;;;11.75;6.22;;;9.00;99.90;;;;;;5010533;28;20734;-64
2023/02/13 04:43:24;;;;;;;10.93;5.47;;;9.00;99.90;;;;;;5006239;28;20665;-64
2023/02/13 04:45:50;;;;;;;9.02;4.45;;;9.00;99.90;;;;;;5004243;28;20842;-64
2023/02/13 04:48:16;;;;;;;8.07;5.05;;;8.90;99.90;;;;;;5010549;28;20270;-64
2023/02/13 04:50:42;;;;;;;11.95;5.50;;;8.90;99.90;;;;;;5012836;28;20022;-64
2023/02/13 04:53:08;;;;;;;11.15;5.68;;;8.90;99.90;;;;;;5012545;28;20034;-62
2023/02/13 04:55:34;;;;;;;11.45;5.20;;;8.90;99.90;;;;;;5011206;28;20122;-64
2023/02/13 04:57:59;;;;;;;11.63;5.80;;;8.90;99.90;;;;;;5007246;28;20095;-64
2023/02/13 05:00:27;;;;;;;9.75;5.47;;;8.90;99.90;;;;;;5004717;28;20054;-64
2023/02/13 05:02:53;;;;;;;11.32;6.13;;;8.90;99.90;;;;;;5007567;28;20034;-64
2023/02/13 05:05:20;;;;;;;11.02;6.38;;;8.90;99.90;;;;;;5009946;28;20626;-64
2023/02/13 05:07:45;;;;;;;10.88;5.97;;;8.90;99.90;;;;;;5005133;28;20042;-63
2023/02/13 05:10:12;;;;;;;13.77;6.38;;;8.90;99.90;;;;;;5000567;28;20161;-64
2023/02/13 05:12:38;;;;;;;14.73;7.05;;;8.90;99.90;;;;;;5007359;28;20076;-64
2023/02/13 05:15:05;;;;;;;10.82;5.88;;;8.90;99.90;;;;;;5010987;28;20132;-62
2023/02/13 05:17:31;;;;;;;12.70;5.63;;;8.90;99.90;;;;;;5010440;28;20057;-64
2023/02/13 05:19:58;;;;;;;12.88;6.35;;;8.90;99.90;;;;;;5010273;28;20186;-64
2023/02/13 05:25:08;;;;;;;12.90;6.45;;;8.90;99.90;;;;;;5008796;28;20775;-64
2023/02/13 05:27:33;;;;;;;11.02;6.05;;;8.90;99.90;;;;;;5011240;28;20072;-64
2023/02/13 05:29:59;;;;;;;12.38;5.85;;;8.90;99.90;;;;;;5008919;28;20037;-64
2023/02/13 05:32:25;;;;;;;11.88;6.32;;;8.90;99.90;;;;;;5004790;28;20091;-64
2023/02/13 05:34:51;;;;;;;11.93;6.07;;;8.90;99.90;;;;;;5003707;28;20045;-64
2023/02/13 05:37:16;;;;;;;10.10;5.45;;;8.90;99.90;;;;;;5012139;28;20518;-64
2023/02/13 05:39:42;;;;;;;9.73;5.68;;;8.90;99.90;;;;;;5007535;28;20042;-62
2023/02/13 05:42:09;;;;;;;12.63;6.75;;;8.90;99.90;;;;;;5008910;28;20057;-62
2023/02/13 05:44:35;;;;;;;10.10;5.63;;;8.90;99.90;;;;;;5009691;28;20595;-62
2023/02/13 05:47:00;;;;;;;11.88;6.50;;;8.90;99.90;;;;;;5010400;28;20033;-64
2023/02/13 05:49:26;;;;;;;10.98;6.03;;;8.90;99.90;;;;;;5005532;28;20057;-64
2023/02/13 05:51:52;;;;;;;12.05;6.50;;;8.90;99.90;;;;;;5005400;28;20048;-64
2023/02/13 05:54:18;;;;;;;9.05;5.18;;;8.90;99.90;;;;;;5010049;28;20066;-65
2023/02/13 05:56:44;;;;;;;9.50;5.47;;;8.90;99.90;;;;;;5010666;28;20053;-64
2023/02/13 05:59:10;;;;;;;9.55;5.90;;;8.90;99.90;;;;;;5006315;28;20060;-64
2023/02/13 06:01:36;;;;;;;10.90;6.10;;;8.90;99.90;;;;;;5003045;28;20042;-64
2023/02/13 06:04:02;;;;;;;12.98;7.05;;;8.90;99.90;;;;;;5004668;28;20038;-65
2023/02/13 06:06:27;;;;;;;11.35;6.25;;;8.90;99.90;;;;;;5006917;28;20038;-64
2023/02/13 06:08:53;;;;;;;10.32;6.05;;;8.90;99.90;;;;;;5008521;28;20895;-64
2023/02/13 06:11:19;;;;;;;12.38;6.40;;;8.90;99.90;;;;;;5006549;28;20862;-64
2023/02/13 06:13:45;;;;;;;13.75;7.45;;;8.90;99.90;;;;;;5009501;28;20124;-62
2023/02/13 06:16:12;;;;;;;9.77;5.68;;;8.90;99.90;;;;;;5011392;28;20579;-62
2023/02/13 06:18:38;;;;;;;12.48;6.63;;;8.90;99.90;;;;;;5013042;28;20041;-62
2023/02/13 06:21:05;;;;;;;9.13;5.47;;;8.90;99.90;;;;;;5011171;28;20052;-64
2023/02/13 06:23:30;;;;;;;10.13;5.93;;;8.90;99.90;;;;;;5011894;28;20537;-64
2023/02/13 06:26:00;;;;;;;12.85;5.93;;;8.90;99.90;;;;;;5015541;28;20042;-64
2023/02/13 06:28:26;;;;;;;12.57;6.72;;;8.90;99.90;;;;;;5006349;28;20038;-64
2023/02/13 06:30:52;;;;;;;10.52;6.25;;;8.90;99.90;;;;;;5010760;28;20036;-64
2023/02/13 06:33:18;;;;;;;12.27;6.78;;;8.90;99.90;;;;;;5006500;28;20109;-64
2023/02/13 06:35:44;;;;;;;10.55;6.10;;;8.90;99.90;;;;;;4988268;28;20126;-64
2023/02/13 06:38:09;;;;;;;11.35;6.18;;;8.90;99.90;;;;;;5007725;28;20057;-64
2023/02/13 06:40:35;;;;;;;13.57;7.82;;;8.90;99.90;;;;;;5008572;28;20041;-64
2023/02/13 06:43:01;;;;;;;12.10;7.03;;;8.90;99.90;;;;;;5009356;28;20029;-64
2023/02/13 06:45:26;;;;;;;13.70;8.05;;;8.80;99.90;;;;;;5010790;28;20029;-64
2023/02/13 06:47:52;;;;;;;13.63;7.18;;;8.80;99.90;;;;;;5012873;28;20032;-63
2023/02/13 06:50:18;;;;;;;14.77;6.45;;;8.90;99.90;;;;;;5009029;28;20029;-64
2023/02/13 06:52:50;;;;;;;12.93;6.80;;;8.80;99.90;;;;;;5006132;28;20030;-64
2023/02/13 06:55:17;;;;;;;12.73;7.30;;;8.80;99.90;;;;;;5008843;28;20044;-64
2023/02/13 06:57:44;;;;;;;14.65;7.55;;;8.80;99.90;;;;;;5011262;28;20092;-64
2023/02/13 07:00:12;;;;;;;12.25;6.63;;;8.80;99.90;;;;;;5009995;28;20037;-65
2023/02/13 07:02:42;;;;;;;13.82;7.70;;;8.80;99.90;;;;;;5010534;28;20037;-64
2023/02/13 07:05:08;;;;;;;12.60;5.95;;;8.80;99.90;;;;;;5014361;28;20045;-64
2023/02/13 07:07:36;;;;;;;11.75;6.50;;;8.80;99.90;;;;;;5011258;28;20103;-64
2023/02/13 07:10:04;;;;;;;10.95;6.18;;;8.90;99.90;;;;;;5008257;28;20026;-64
2023/02/13 07:12:32;;;;;;;12.95;7.03;;;8.90;99.90;;;;;;5009648;28;20056;-63
2023/02/13 07:14:58;;;;;;;10.80;6.00;;;8.90;99.90;;;;;;5009006;28;20068;-64
2023/02/13 07:17:25;;;;;;;12.52;6.05;;;8.90;99.90;;;;;;5009466;28;20121;-65
2023/02/13 07:19:52;;;;;;;11.27;5.88;;;8.90;99.90;;;;;;5009952;28;20099;-64
2023/02/13 07:22:18;;;;;;;9.43;4.97;;;8.90;99.90;;;;;;5008611;28;20042;-64
2023/02/13 07:24:43;;;;;;;12.35;6.13;;;8.90;99.90;;;;;;5003413;28;20048;-64
2023/02/13 07:27:09;;;;;;;17.58;6.82;;;8.90;99.90;;;;;;5007829;28;20061;-64
2023/02/13 07:29:35;;;;;;;10.07;5.68;;;8.90;99.90;;;;;;5010220;28;20046;-64
2023/02/13 07:32:01;;;;;;;10.88;5.55;;;8.90;99.90;;;;;;5013206;28;20028;-64
2023/02/13 07:34:26;;;;;;;9.57;4.93;;;8.90;99.90;;;;;;5011181;28;20091;-65
2023/02/13 07:36:52;;;;;;;9.45;5.30;;;8.90;99.90;;;;;;5009951;28;20710;-64
2023/02/13 07:39:18;;;;;;;9.13;5.10;;;8.90;99.90;;;;;;5005355;28;20042;-64
2023/02/13 07:41:44;;;;;;;10.38;4.55;;;8.90;99.90;;;;;;5009607;28;20111;-64
2023/02/13 07:44:09;;;;;;;13.30;5.38;;;9.00;99.90;;;;;;5013720;28;20037;-64
2023/02/13 07:46:36;;;;;;;10.63;5.15;;;9.00;99.90;;;;;;5005971;28;20026;-64
2023/02/13 07:49:02;;;;;;;9.02;4.82;;;9.00;99.90;;;;;;5010064;28;20088;-64
2023/02/13 07:51:28;;;;;;;11.10;5.35;;;9.00;99.90;;;;;;5011401;28;20045;-64
2023/02/13 07:53:54;;;;;;;8.93;4.65;;;9.00;99.90;;;;;;5009945;28;20136;-65
2023/02/13 07:56:21;;;;;;;10.30;4.82;;;9.00;99.90;;;;;;5006940;28;20034;-65
2023/02/13 07:58:46;;;;;;;9.43;4.80;;;9.10;99.90;;;;;;5009968;28;20090;-64
2023/02/13 08:01:15;;;;;;;11.52;4.85;;;9.10;99.90;;;;;;5008044;28;20037;-64
2023/02/13 08:03:41;;;;;;;9.95;4.85;;;9.10;99.90;;;;;;5008174;28;20038;-64
2023/02/13 08:06:08;;;;;;;11.23;5.07;;;9.10;99.90;;;;;;5014410;28;20033;-65
2023/02/13 08:08:34;;;;;;;12.10;5.45;;;9.10;99.90;;;;;;5009252;28;20045;-66
2023/02/13 08:13:51;;;;;;;16.05;7.32;;;9.20;99.90;;;;;;5008888;28;20113;-64
2023/02/13 08:16:17;;;;;;;13.48;7.18;;;9.20;99.90;;;;;;5005673;28;20044;-65
2023/02/13 08:18:43;;;;;;;14.52;6.70;;;9.30;99.90;;;;;;5006253;28;20046;-62
2023/02/13 08:21:08;;;;;;;11.35;6.88;;;9.30;99.90;;;;;;5013052;28;20088;-62
2023/02/13 08:23:34;;;;;;;12.65;6.53;;;9.40;99.90;;;;;;5006426;28;20793;-65
2023/02/13 08:26:01;;;;;;;11.52;6.15;;;9.40;99.90;;;;;;5011463;28;20030;-61
2023/02/13 08:28:28;;;;;;;15.32;7.90;;;9.40;99.90;;;;;;5012266;28;20037;-61
2023/02/13 08:30:54;;;;;;;15.93;6.88;;;9.40;99.90;;;;;;5013463;28;20612;-62
2023/02/13 08:33:20;;;;;;;14.45;6.95;;;9.50;99.90;;;;;;5011540;28;20022;-63
2023/02/13 08:35:46;;;;;;;14.55;7.00;;;9.50;99.90;;;;;;5012440;28;20026;-64
2023/02/13 08:38:11;;;;;;;18.45;9.20;;;9.60;99.90;;;;;;5010421;28;20056;-62
2023/02/13 08:40:37;;;;;;;13.70;6.80;;;9.60;99.90;;;;;;5007884;28;20809;-64
2023/02/13 08:43:04;;;;;;;14.60;7.10;;;9.60;99.90;;;;;;5004018;28;20056;-61
2023/02/13 08:45:31;;;;;;;15.40;6.43;;;9.60;99.90;;;;;;5015640;28;20479;-64
2023/02/13 08:48:02;;;;;;;16.60;8.05;;;9.60;99.90;;;;;;5009175;28;20025;-61
2023/02/13 08:50:28;;;;;;;13.45;6.57;;;9.70;99.90;;;;;;5014575;28;20116;-64
2023/02/13 08:52:54;;;;;;;17.20;8.10;;;9.70;99.90;;;;;;5008742;28;20030;-64
2023/02/13 08:55:20;;;;;;;17.23;7.90;;;9.70;99.90;;;;;;5009414;28;20026;-65
2023/02/13 08:57:45;;;;;;;18.05;7.90;;;9.80;99.90;;;;;;5008809;28;20124;-64
2023/02/13 09:00:12;;;;;;;16.95;7.03;;;9.80;99.80;;;;;;5014107;28;20037;-63
2023/02/13 09:02:38;;;;;;;16.63;7.90;;;9.80;99.70;;;;;;5007048;28;20869;-63
2023/02/13 09:05:04;;;;;;;17.15;6.97;;;9.80;99.50;;;;;;5009164;28;20037;-64
2023/02/13 09:07:29;;;;;;;16.30;7.55;;;9.80;99.60;;;;;;5006055;28;20052;-64
2023/02/13 09:09:55;;;;;;;20.50;7.82;;;9.80;99.70;;;;;;5012216;28;20042;-64
2023/02/13 09:12:21;;;;;;;13.52;6.40;;;9.90;99.70;;;;;;5008274;28;20040;-64
2023/02/13 09:14:46;;;;;;;15.48;6.70;;;9.80;99.60;;;;;;5013092;28;20501;-62
2023/02/13 09:17:17;;;;;;;19.48;7.45;;;9.90;99.60;;;;;;5009549;28;20030;-64
2023/02/13 09:19:43;;;;;;;16.08;7.28;;;9.90;99.60;;;;;;5010346;28;20397;-64
2023/02/13 09:22:08;;;;;;;20.00;7.43;;;9.90;99.60;;;;;;5010788;28;20037;-64
2023/02/13 09:24:34;;;;;;;18.15;7.32;;;9.90;99.50;;;;;;5013502;28;20037;-63
2023/02/13 09:27:00;;;;;;;16.98;7.72;;;9.90;99.30;;;;;;5011160;28;20037;-62
2023/02/13 09:29:30;;;;;;;19.50;8.15;;;9.90;99.30;;;;;;4989318;28;20037;-64
2023/02/13 09:31:56;;;;;;;18.92;7.80;;;9.90;99.40;;;;;;5014002;28;20577;-64
2023/02/13 09:34:21;;;;;;;15.13;7.30;;;9.90;99.50;;;;;;5005693;28;20038;-64
2023/02/13 09:36:52;;;;;;;18.35;8.35;;;9.90;99.70;;;;;;5007697;28;20038;-63
2023/02/13 09:39:17;;;;;;;19.77;7.63;;;10.00;99.60;;;;;;5011927;28;20060;-63
2023/02/13 09:41:46;;;;;;;17.48;6.90;;;10.10;99.30;;;;;;5009970;28;20087;-64
2023/02/13 09:44:32;;;;;;;17.25;6.75;;;10.00;99.00;;;;;;5005703;28;20095;-64
2023/02/13 09:47:03;;;;;;;;;;;10.00;99.30;;;;;;5011493;28;20029;-64
2023/02/13 09:49:33;;;;;;;13.90;6.28;;;10.00;99.40;;;;;;5010466;28;19917;-63
2023/02/13 09:52:00;;;;;;;15.65;7.25;;;10.00;99.50;;;;;;5010739;28;20059;-64
2023/02/13 09:54:30;;;;;;;13.98;6.68;;;10.00;99.60;;;;;;5008653;28;20036;-64
2023/02/13 09:57:16;;;;;;;16.55;6.90;;;10.10;99.50;;;;;;5000312;28;20061;-64
2023/02/13 10:00:01;;;;;;;19.42;7.03;;;10.10;99.30;;;;;;5007925;28;20052;-64
2023/02/13 10:02:43;;;;;;;15.80;6.78;;;10.20;99.10;;;;;;5010650;28;20042;-64
2023/02/13 10:05:27;;;;;;;14.38;6.68;;;10.20;99.10;;;;;;5008032;28;20080;-63
2023/02/13 10:07:58;;;;;;;15.95;7.07;;;10.20;99.30;;;;;;5009878;28;20034;-63
2023/02/13 10:10:48;;;;;;;13.48;6.28;;;10.20;99.40;;;;;;5003906;28;20052;-65
2023/02/13 10:13:22;;;;;;;14.73;5.65;;;10.40;98.90;;;;;;5006608;28;20045;-64
2023/02/13 10:15:58;;;;;;;18.35;7.45;;;10.40;99.00;;;;;;5010310;28;20072;-64
2023/02/13 10:18:34;;;;;;;18.70;7.75;;;10.50;99.00;;;;;;5010600;28;20524;-64
2023/02/13 10:21:02;;;;;;;13.23;6.40;;;10.70;98.50;;;;;;5009876;28;20033;-64
2023/02/13 10:23:45;;;;;;;15.10;6.90;;;10.70;98.00;;;;;;5010693;28;20111;-63
2023/02/13 10:26:44;;;;;;;17.77;7.65;;;10.70;98.30;;;;;;5010836;28;20026;-63
2023/02/13 10:32:14;;;;;;;15.07;6.97;;;10.80;98.10;;;;;;5005058;28;20494;-68
2023/02/13 10:34:44;;;;;;;15.85;6.78;;;10.80;97.80;;;;;;5015254;28;20034;-68
2023/02/13 10:37:16;;;;;;;16.92;7.07;;;10.80;97.70;;;;;;5007847;28;20042;-68
2023/02/13 10:39:57;;;;;;;16.55;7.88;;;10.80;97.40;;;;;;5008609;28;20132;-68
2023/02/13 10:42:57;;;;;;;14.40;6.25;;;10.80;97.50;;;;;;5009323;28;20152;-68
2023/02/13 10:45:56;;;;;;;17.13;7.28;;;10.60;97.30;;;;;;5009785;28;20037;-68
2023/02/13 10:48:47;;;;;;;16.80;7.93;;;10.50;97.80;;;;;;5005691;28;20033;-68
2023/02/13 10:51:42;;;;;;;13.33;7.10;;;10.60;97.80;;;;;;5013330;28;20033;-68
2023/02/13 10:54:31;;;;;;;15.10;7.55;;;10.60;97.90;;;;;;5009490;28;20022;-68
2023/02/13 10:57:24;;;;;;;;;;;10.60;98.00;;;;;;5007254;28;20030;-64
2023/02/13 10:59:51;;;;;;;14.02;7.72;;;10.60;98.10;;;;;;5010823;28;19937;-64
2023/02/13 11:02:33;;;;;;;19.67;9.90;;;10.70;98.20;;;;;;5011559;28;20136;-64
2023/02/13 11:05:21;;;;;;;18.25;8.40;;;10.70;97.90;;;;;;5014405;28;20038;-64
2023/02/13 11:07:48;;;;;;;18.67;8.73;;;10.70;98.00;;;;;;5011267;28;20034;-62
2023/02/13 11:10:21;;;;;;;17.25;8.80;;;10.80;97.60;;;;;;5010279;28;20053;-64
2023/02/13 11:12:48;;;;;;;18.50;7.85;;;10.80;97.60;;;;;;5008011;28;20033;-64
2023/02/13 11:15:25;;;;;;;14.80;7.50;;;10.80;97.50;;;;;;5013418;28;20049;-64
2023/02/13 11:18:19;;;;;;;15.05;7.80;;;10.90;97.50;;;;;;4994889;28;20026;-64
2023/02/13 11:21:01;;;;;;;18.42;8.40;;;10.90;97.60;;;;;;5005635;28;20046;-64
2023/02/13 11:23:31;;;;;;;20.35;9.45;;;10.90;97.40;;;;;;5013894;28;20826;-64
2023/02/13 11:26:09;;;;;;;21.45;10.77;;;10.90;97.20;;;;;;5011494;28;20029;-63
2023/02/13 11:28:55;;;;;;;21.92;9.73;;;10.90;97.30;;;;;;5010057;28;20029;-63
2023/02/13 11:31:36;;;;;;;23.00;11.52;;;11.00;97.30;;;;;;5005749;28;20034;-64
2023/02/13 11:34:20;;;;;;;17.38;9.18;;;10.90;97.20;;;;;;5014289;28;20111;-64
2023/02/13 11:36:51;;;;;;;16.23;8.75;;;10.90;97.10;;;;;;5008963;28;20120;-63
2023/02/13 11:39:25;;;;;;;18.05;8.90;;;11.00;97.20;;;;;;5012202;28;20076;-64
2023/02/13 11:41:54;;;;;;;;;;;11.00;97.20;;;;;;5010996;28;20049;-63
2023/02/13 11:44:34;;;;;;;47.08;19.85;;;11.00;97.20;;;;;;5009657;28;19913;-62
2023/02/13 11:47:02;;;;;;;22.70;10.15;;;11.00;97.20;;;;;;5012763;28;20120;-63
2023/02/13 11:49:37;;;;;;;20.92;10.57;;;11.10;96.60;;;;;;5006286;28;20030;-63
2023/02/13 11:52:22;;;;;;;33.75;13.95;;;11.10;96.30;;;;;;5008121;28;20045;-64
2023/02/13 11:54:58;;;;;;;32.45;14.45;;;11.10;96.60;;;;;;5008385;28;20055;-63
2023/02/13 11:57:31;;;;;;;19.75;10.18;;;11.20;96.70;;;;;;5010227;28;20064;-64
2023/02/13 12:00:21;;;;;;;17.60;9.07;;;11.20;96.40;;;;;;5009468;28;20061;-63
2023/02/13 12:02:48;;;;;;;21.50;10.55;;;11.30;96.00;;;;;;5013586;28;20038;-63
2023/02/13 12:05:16;;;;;;;16.92;8.77;;;11.20;95.80;;;;;;5011448;28;20034;-64
2023/02/13 12:07:44;;;;;;;22.25;10.38;;;11.20;95.50;;;;;;5010901;28;20060;-64
2023/02/13 12:10:27;;;;;;;21.75;8.80;;;11.10;95.60;;;;;;5011381;28;20034;-64
2023/02/13 12:13:04;;;;;;;15.63;8.00;;;11.10;95.60;;;;;;5010376;28;20057;-63
2023/02/13 12:15:40;;;;;;;108.97;40.60;;;11.10;95.60;;;;;;5013325;28;20040;-64
2023/02/13 12:18:25;;;;;;;36.95;15.55;;;11.10;95.60;;;;;;5012579;28;20889;-64
2023/02/13 12:21:01;;;;;;;17.17;8.48;;;11.00;95.70;;;;;;5014165;28;20034;-64
2023/02/13 12:23:36;;;;;;;41.88;22.15;;;11.00;95.70;;;;;;5010117;28;20120;-64
2023/02/13 12:26:38;;;;;;;33.83;17.77;;;11.00;95.30;;;;;;5012227;28;20409;-64
2023/02/13 12:29:40;;;;;;;23.27;11.60;;;11.00;95.70;;;;;;5003808;28;20063;-64
2023/02/13 12:32:06;;;;;;;15.65;7.15;;;11.00;95.90;;;;;;4958171;28;20073;-63
2023/02/13 12:35:16;;;;;;;12.45;6.40;;;11.00;95.90;;;;;;5009768;28;20038;-63
2023/02/13 12:38:10;;;;;;;15.75;7.97;;;11.00;95.90;;;;;;4976059;28;20038;-64
2023/02/13 12:41:09;;;;;;;19.75;8.85;;;11.00;95.90;;;;;;5013699;28;20088;-63
2023/02/13 12:44:11;;;;;;;13.93;6.60;;;11.10;95.60;;;;;;5009466;28;20045;-63
2023/02/13 12:47:08;;;;;;;12.25;5.95;;;11.00;94.90;;;;;;5010269;28;20060;-65
2023/02/13 12:50:06;;;;;;;11.85;5.93;;;11.00;95.00;;;;;;5010459;28;20042;-64
2023/02/13 12:53:03;;;;;;;11.15;5.93;;;11.00;95.20;;;;;;5007594;28;20030;-64
2023/02/13 12:56:08;;;;;;;11.88;6.10;;;11.00;95.20;;;;;;5002499;28;20037;-64
2023/02/13 12:58:43;;;;;;;9.75;5.75;;;11.00;95.30;;;;;;5007544;28;20122;-64
2023/02/13 13:01:42;;;;;;;12.88;6.28;;;11.00;95.30;;;;;;5005402;28;20045;-64
2023/02/13 13:04:37;;;;;;;12.10;5.95;;;11.00;95.40;;;;;;5007174;28;20045;-64
2023/02/13 13:07:37;;;;;;;14.00;7.25;;;10.90;95.60;;;;;;5014630;28;20045;-64
2023/02/13 13:10:26;;;;;;;12.00;6.20;;;10.90;95.60;;;;;;5008278;28;20038;-63
2023/02/13 13:13:24;;;;;;;10.50;5.30;;;10.90;95.80;;;;;;5011005;28;20091;-63
2023/02/13 13:16:24;;;;;;;15.82;6.35;;;10.90;95.90;;;;;;5011067;28;20180;-63
2023/02/13 13:19:08;;;;;;;14.52;7.63;;;10.90;95.60;;;;;;5005890;28;20046;-64
2023/02/13 13:22:04;;;;;;;12.60;5.65;;;10.80;95.60;;;;;;5006378;28;20037;-65
2023/02/13 13:24:57;;;;;;;10.50;5.28;;;10.80;95.90;;;;;;5012962;28;20711;-65
2023/02/13 13:27:29;;;;;;;12.80;6.50;;;10.80;95.60;;;;;;5013336;28;20744;-65
2023/02/13 13:30:11;;;;;;;11.60;5.78;;;10.80;95.80;;;;;;5007973;28;20030;-65
2023/02/13 13:32:45;;;;;;;10.40;6.15;;;10.80;96.00;;;;;;5013813;28;20029;-63
2023/02/13 13:35:15;;;;;;;11.95;6.25;;;10.80;96.00;;;;;;5005668;28;20038;-65
2023/02/13 13:38:01;;;;;;;12.45;5.95;;;10.70;96.00;;;;;;5007692;28;20034;-64
2023/02/13 13:40:46;;;;;;;13.27;6.38;;;10.80;96.10;;;;;;5009266;28;20061;-65
2023/02/13 13:43:16;;;;;;;10.20;5.35;;;10.70;96.00;;;;;;5009239;28;20056;-64
2023/02/13 13:45:56;;;;;;;12.57;5.90;;;10.70;96.10;;;;;;5009799;28;20076;-64
2023/02/13 13:48:36;;;;;;;10.15;5.65;;;10.70;96.10;;;;;;5008441;28;20030;-65
2023/02/13 13:51:12;;;;;;;11.70;5.53;;;10.70;96.10;;;;;;5012468;28;20022;-64
2023/02/13 13:54:04;;;;;;;11.60;6.00;;;10.70;96.10;;;;;;5008849;28;20034;-65
2023/02/13 13:56:52;;;;;;;12.23;6.10;;;10.60;96.20;;;;;;5007515;28;20124;-64
2023/02/13 13:59:52;;;;;;;15.40;8.63;;;10.70;96.10;;;;;;5004746;28;20064;-65
2023/02/13 14:02:21;;;;;;;13.68;6.85;;;10.70;96.10;;;;;;5009468;28;20041;-64